createdAt,value
2023-04-26T00:00:09.852Z,3.80
2023-04-26T00:02:38.363Z,3.80
2023-04-26T00:05:07.882Z,3.50
2023-04-26T00:07:37.967Z,3.90
2023-04-26T00:10:06.444Z,3.37
2023-04-26T00:12:36.439Z,3.70
2023-04-26T00:15:04.732Z,3.80
2023-04-26T00:17:32.941Z,3.67
2023-04-26T00:20:01.513Z,3.30
2023-04-26T00:22:29.802Z,3.97
2023-04-26T00:24:58.276Z,3.13
2023-04-26T00:27:26.526Z,3.37
2023-04-26T00:29:56.114Z,3.40
2023-04-26T00:32:24.409Z,3.77
2023-04-26T00:34:52.709Z,3.33
2023-04-26T00:37:21.385Z,4.13
2023-04-26T00:39:49.680Z,3.53
2023-04-26T00:42:19.344Z,3.40
2023-04-26T00:44:47.612Z,3.53
2023-04-26T00:47:17.308Z,3.67
2023-04-26T00:49:45.891Z,3.93
2023-04-26T00:52:14.224Z,3.80
2023-04-26T00:54:42.530Z,3.00
2023-04-26T00:57:11.012Z,3.60
2023-04-26T00:59:39.365Z,4.33
2023-04-26T01:02:07.872Z,3.73
2023-04-26T01:04:40.042Z,4.47
2023-04-26T01:07:08.275Z,4.07
2023-04-26T01:09:36.518Z,3.90
2023-04-26T01:12:05.020Z,3.73
2023-04-26T01:14:33.704Z,3.83
2023-04-26T01:17:02.550Z,3.80
2023-04-26T01:19:30.934Z,3.50
2023-04-26T01:22:00.602Z,3.83
2023-04-26T01:24:30.234Z,3.97
2023-04-26T01:26:59.217Z,3.60
2023-04-26T01:29:27.469Z,4.40
2023-04-26T01:31:55.750Z,3.63
2023-04-26T01:34:23.949Z,3.83
2023-04-26T01:36:52.328Z,3.70
2023-04-26T01:39:20.953Z,3.67
2023-04-26T01:41:50.637Z,3.70
2023-04-26T01:44:19.003Z,3.67
2023-04-26T01:46:47.490Z,3.93
2023-04-26T01:49:15.773Z,3.27
2023-04-26T01:51:44.022Z,3.60
2023-04-26T01:54:12.250Z,3.83
2023-04-26T01:56:40.581Z,3.80
2023-04-26T01:59:10.333Z,3.77
2023-04-26T02:01:38.589Z,3.23
2023-04-26T02:04:06.875Z,3.70
2023-04-26T02:06:35.070Z,3.60
2023-04-26T02:09:03.362Z,3.90
2023-04-26T02:11:31.603Z,3.57
2023-04-26T02:13:59.870Z,4.10
2023-04-26T02:16:29.829Z,4.40
2023-04-26T02:18:59.315Z,4.17
2023-04-26T02:21:28.338Z,4.70
2023-04-26T02:23:57.050Z,4.10
2023-04-26T02:26:25.281Z,4.07
2023-04-26T02:28:53.752Z,4.33
2023-04-26T02:31:23.209Z,4.60
2023-04-26T02:33:52.991Z,4.40
2023-04-26T02:36:21.256Z,5.00
2023-04-26T02:38:49.577Z,4.27
2023-04-26T02:41:17.904Z,4.27
2023-04-26T02:43:46.191Z,4.10
2023-04-26T02:48:43.334Z,4.27
2023-04-26T02:51:12.986Z,4.30
2023-04-26T02:53:41.190Z,5.13
2023-04-26T02:56:09.534Z,4.33
2023-04-26T02:58:37.761Z,4.17
2023-04-26T03:01:06.060Z,4.70
2023-04-26T03:03:34.672Z,4.40
2023-04-26T03:06:02.971Z,5.03
2023-04-26T03:08:34.964Z,4.50
2023-04-26T03:11:03.208Z,4.70
2023-04-26T03:13:31.646Z,5.00
2023-04-26T03:15:59.962Z,4.73
2023-04-26T03:18:28.381Z,5.33
2023-04-26T03:20:56.571Z,5.07
2023-04-26T03:23:25.488Z,5.47
2023-04-26T03:25:55.095Z,5.20
2023-04-26T03:28:23.293Z,4.70
2023-04-26T03:30:51.841Z,4.70
2023-04-26T03:33:20.134Z,5.17
2023-04-26T03:35:48.324Z,5.07
2023-04-26T03:38:17.238Z,4.63
2023-04-26T03:40:45.540Z,5.03
2023-04-26T03:43:15.120Z,4.80
2023-04-26T03:45:43.367Z,5.40
2023-04-26T03:48:11.700Z,4.97
2023-04-26T03:50:40.165Z,5.40
2023-04-26T03:53:08.444Z,5.07
2023-04-26T03:55:36.718Z,5.50
2023-04-26T03:58:07.831Z,5.43
2023-04-26T04:00:38.731Z,5.63
2023-04-26T04:03:07.495Z,5.63
2023-04-26T04:05:36.114Z,5.37
2023-04-26T04:08:04.514Z,5.30
2023-04-26T04:10:32.708Z,5.50
2023-04-26T04:13:00.996Z,5.00
2023-04-26T04:15:29.302Z,5.40
2023-04-26T04:17:58.957Z,5.60
2023-04-26T04:20:27.199Z,6.10
2023-04-26T04:22:55.409Z,5.83
2023-04-26T04:25:24.801Z,5.70
2023-04-26T04:27:53.405Z,5.20
2023-04-26T04:30:21.687Z,5.10
2023-04-26T04:32:50.135Z,5.40
2023-04-26T04:35:19.950Z,5.40
2023-04-26T04:37:50.056Z,5.90
2023-04-26T04:40:18.439Z,4.87
2023-04-26T04:42:46.868Z,6.83
2023-04-26T04:45:15.990Z,5.30
2023-04-26T04:47:45.393Z,5.30
2023-04-26T04:50:14.527Z,5.33
2023-04-26T04:52:44.216Z,5.70
2023-04-26T04:55:12.618Z,5.20
2023-04-26T04:57:43.112Z,4.97
2023-04-26T05:00:12.598Z,5.03
2023-04-26T05:02:41.255Z,5.80
2023-04-26T05:05:10.953Z,5.10
2023-04-26T05:07:39.303Z,5.13
2023-04-26T05:10:09.347Z,5.50
2023-04-26T05:12:38.122Z,4.67
2023-04-26T05:15:06.757Z,5.70
2023-04-26T05:17:35.222Z,4.47
2023-04-26T05:20:07.927Z,4.87
2023-04-26T05:22:36.781Z,4.73
2023-04-26T05:25:05.470Z,5.03
2023-04-26T05:27:35.055Z,5.00
2023-04-26T05:30:03.319Z,5.03
2023-04-26T05:32:31.553Z,4.70
2023-04-26T05:35:00.037Z,5.00
2023-04-26T05:37:28.216Z,5.60
2023-04-26T05:39:56.428Z,5.33
2023-04-26T05:42:24.644Z,5.10
2023-04-26T05:44:58.370Z,5.00
2023-04-26T05:47:26.901Z,8.33
2023-04-26T05:49:55.089Z,5.07
2023-04-26T05:52:23.328Z,4.87
2023-04-26T05:54:51.662Z,5.03
2023-04-26T05:57:19.974Z,4.93
2023-04-26T05:59:48.534Z,5.60
2023-04-26T06:02:18.294Z,4.27
2023-04-26T06:04:46.911Z,4.97
2023-04-26T06:07:15.921Z,4.87
2023-04-26T06:09:44.181Z,4.77
2023-04-26T06:12:12.372Z,4.60
2023-04-26T06:14:40.590Z,4.27
2023-04-26T06:17:08.901Z,4.73
2023-04-26T06:19:38.649Z,4.27
2023-04-26T06:22:06.852Z,4.37
2023-04-26T06:24:35.241Z,4.57
2023-04-26T06:27:03.472Z,4.00
2023-04-26T06:29:34.150Z,4.13
2023-04-26T06:32:03.926Z,4.27
2023-04-26T06:34:32.137Z,3.90
2023-04-26T06:37:01.802Z,4.03
2023-04-26T06:39:30.095Z,3.90
2023-04-26T06:41:58.329Z,4.10
2023-04-26T06:44:26.559Z,4.53
2023-04-26T06:46:55.876Z,4.20
2023-04-26T06:49:24.098Z,3.80
2023-04-26T06:51:53.046Z,4.13
2023-04-26T06:54:23.198Z,3.90
2023-04-26T06:56:51.592Z,4.30
2023-04-26T06:59:19.794Z,3.97
2023-04-26T07:01:48.003Z,4.27
2023-04-26T07:04:18.795Z,3.60
2023-04-26T07:06:47.197Z,3.10
2023-04-26T07:09:15.415Z,3.80
2023-04-26T07:11:47.941Z,3.63
2023-04-26T07:14:17.171Z,3.90
2023-04-26T07:16:46.095Z,4.33
2023-04-26T07:19:14.431Z,4.17
2023-04-26T07:21:42.612Z,3.57
2023-04-26T07:24:10.895Z,3.63
2023-04-26T07:26:39.117Z,3.83
2023-04-26T07:29:08.767Z,4.17
2023-04-26T07:31:37.535Z,4.00
2023-04-26T07:34:05.728Z,4.07
2023-04-26T07:36:34.048Z,3.50
2023-04-26T07:39:02.545Z,3.70
2023-04-26T07:41:30.795Z,4.10
2023-04-26T07:43:59.130Z,4.27
2023-04-26T07:46:28.656Z,4.00
2023-04-26T07:48:56.913Z,3.87
2023-04-26T07:51:25.104Z,4.13
2023-04-26T07:53:53.780Z,4.10
2023-04-26T07:56:24.092Z,4.50
2023-04-26T07:58:52.451Z,4.23
2023-04-26T08:01:20.696Z,4.00
2023-04-26T08:03:50.684Z,4.37
2023-04-26T08:06:19.360Z,4.07
2023-04-26T08:08:50.758Z,3.43
2023-04-26T08:11:19.262Z,4.20
2023-04-26T08:13:47.517Z,3.47
2023-04-26T08:16:16.778Z,3.17
2023-04-26T08:18:46.981Z,2.90
2023-04-26T08:21:16.738Z,3.67
2023-04-26T08:23:45.025Z,3.50
2023-04-26T08:26:13.322Z,3.43
2023-04-26T08:28:41.631Z,3.67
2023-04-26T08:31:10.118Z,3.10
2023-04-26T08:33:38.433Z,3.23
2023-04-26T08:36:06.972Z,2.40
2023-04-26T08:38:36.680Z,2.20
2023-04-26T08:41:06.051Z,2.50
2023-04-26T08:43:35.568Z,2.00
2023-04-26T08:46:04.355Z,1.83
2023-04-26T08:48:35.997Z,1.80
2023-04-26T08:51:05.359Z,1.73
2023-04-26T08:53:36.488Z,1.77
2023-04-26T08:56:06.469Z,1.80
2023-04-26T08:58:34.720Z,1.90
2023-04-26T09:01:03.759Z,2.10
2023-04-26T09:03:32.467Z,2.00
2023-04-26T09:06:02.566Z,2.30
2023-04-26T09:08:32.111Z,2.23
2023-04-26T09:11:00.308Z,2.00
2023-04-26T09:13:31.190Z,2.13
2023-04-26T09:15:59.483Z,2.50
2023-04-26T09:18:27.866Z,2.37
2023-04-26T09:21:06.386Z,2.23
2023-04-26T09:23:35.193Z,2.20
2023-04-26T09:26:19.509Z,2.20
2023-04-26T09:28:49.260Z,2.20
2023-04-26T09:31:38.205Z,2.50
2023-04-26T09:34:06.581Z,2.73
2023-04-26T09:36:34.817Z,2.60
2023-04-26T09:39:03.898Z,2.60
2023-04-26T09:41:44.732Z,2.83
2023-04-26T09:44:24.239Z,2.43
2023-04-26T09:47:05.604Z,2.53
2023-04-26T09:49:34.895Z,2.60
2023-04-26T09:52:03.989Z,2.33
2023-04-26T09:54:42.416Z,2.13
2023-04-26T09:57:10.948Z,2.90
2023-04-26T09:59:44.362Z,2.90
2023-04-26T10:02:15.955Z,2.20
2023-04-26T10:04:46.881Z,2.53
2023-04-26T10:07:15.937Z,2.20
2023-04-26T10:09:44.540Z,2.47
2023-04-26T10:12:13.318Z,1.90
2023-04-26T10:14:41.893Z,1.97
2023-04-26T10:17:12.769Z,2.07
2023-04-26T10:19:43.883Z,2.33
2023-04-26T10:22:14.272Z,2.60
2023-04-26T10:24:42.573Z,2.27
2023-04-26T10:27:10.799Z,2.10
2023-04-26T10:29:59.225Z,2.10
2023-04-26T10:32:28.857Z,2.90
2023-04-26T10:35:10.949Z,2.23
2023-04-26T10:37:39.172Z,2.23
2023-04-26T10:40:26.378Z,1.90
2023-04-26T10:43:19.447Z,2.20
2023-04-26T10:45:48.027Z,1.70
2023-04-26T10:48:18.777Z,2.13
2023-04-26T10:51:12.253Z,2.53
2023-04-26T10:53:59.422Z,2.40
2023-04-26T10:56:45.516Z,4.30
2023-04-26T10:59:33.348Z,2.43
2023-04-26T11:02:02.741Z,2.50
2023-04-26T11:04:46.585Z,2.60
2023-04-26T11:07:16.805Z,2.30
2023-04-26T11:09:50.621Z,3.33
2023-04-26T11:12:18.815Z,2.70
2023-04-26T11:14:47.596Z,2.63
2023-04-26T11:17:15.922Z,2.53
2023-04-26T11:19:44.135Z,2.27
2023-04-26T11:22:12.666Z,2.17
2023-04-26T11:24:42.687Z,2.30
2023-04-26T11:27:11.340Z,2.57
2023-04-26T11:29:39.907Z,2.77
2023-04-26T11:32:08.533Z,2.40
2023-04-26T11:34:38.175Z,2.60
2023-04-26T11:37:06.850Z,3.83
2023-04-26T11:39:35.506Z,2.63
2023-04-26T11:42:08.359Z,2.37
2023-04-26T11:44:37.290Z,2.23
2023-04-26T11:47:05.830Z,2.20
2023-04-26T11:49:34.626Z,2.67
2023-04-26T11:52:03.196Z,2.10
2023-04-26T11:54:31.731Z,2.47
2023-04-26T11:57:00.384Z,1.87
2023-04-26T11:59:30.803Z,2.60
2023-04-26T12:01:59.233Z,2.83
2023-04-26T12:04:31.133Z,2.50
2023-04-26T12:06:59.701Z,2.30
2023-04-26T12:09:29.695Z,2.60
2023-04-26T12:11:59.968Z,2.40
2023-04-26T12:14:33.755Z,2.53
2023-04-26T12:17:03.130Z,2.50
2023-04-26T12:19:34.831Z,2.57
2023-04-26T12:22:03.049Z,2.80
2023-04-26T12:24:35.757Z,2.47
2023-04-26T12:27:04.445Z,2.30
2023-04-26T12:29:34.208Z,2.30
2023-04-26T12:32:02.944Z,2.47
2023-04-26T12:34:31.429Z,2.23
2023-04-26T12:36:59.726Z,2.37
2023-04-26T12:39:28.026Z,2.30
2023-04-26T12:41:56.314Z,2.40
2023-04-26T12:44:24.611Z,2.13
2023-04-26T12:46:54.238Z,2.30
2023-04-26T12:49:22.439Z,2.10
2023-04-26T12:51:50.812Z,2.60
2023-04-26T12:54:19.070Z,2.30
2023-04-26T12:56:48.586Z,2.30
2023-04-26T12:59:16.871Z,2.17
2023-04-26T13:01:45.137Z,2.40
2023-04-26T13:04:15.247Z,2.30
2023-04-26T13:06:43.747Z,2.47
2023-04-26T13:09:13.684Z,2.40
2023-04-26T13:11:41.992Z,2.10
2023-04-26T13:14:10.491Z,2.03
2023-04-26T13:16:42.263Z,1.83
2023-04-26T13:19:10.619Z,2.37
2023-04-26T13:21:40.386Z,2.30
2023-04-26T13:24:08.803Z,2.03
2023-04-26T13:26:37.070Z,2.17
2023-04-26T13:29:05.390Z,2.33
2023-04-26T13:31:33.633Z,1.87
2023-04-26T13:34:03.004Z,2.77
2023-04-26T13:36:31.953Z,2.27
2023-04-26T13:39:01.683Z,2.53
2023-04-26T13:41:33.302Z,2.27
2023-04-26T13:44:01.980Z,2.37
2023-04-26T13:46:30.342Z,2.40
2023-04-26T13:48:58.685Z,2.57
2023-04-26T13:51:27.122Z,2.63
2023-04-26T13:53:55.754Z,2.00
2023-04-26T13:56:26.254Z,2.40
2023-04-26T13:58:56.538Z,2.07
2023-04-26T14:01:24.957Z,2.20
2023-04-26T14:03:55.762Z,2.03
2023-04-26T14:06:24.435Z,2.27
2023-04-26T14:08:52.794Z,2.43
2023-04-26T14:11:21.128Z,2.30
2023-04-26T14:13:54.015Z,2.70
2023-04-26T14:16:22.768Z,2.37
2023-04-26T14:18:51.063Z,2.13
2023-04-26T14:21:19.374Z,2.20
2023-04-26T14:23:47.619Z,2.40
2023-04-26T14:26:15.865Z,2.10
2023-04-26T14:28:44.214Z,2.30
2023-04-26T14:31:13.941Z,2.97
2023-04-26T14:33:42.350Z,2.70
2023-04-26T14:36:11.132Z,2.30
2023-04-26T14:38:39.453Z,2.70
2023-04-26T14:41:07.738Z,2.40
2023-04-26T14:43:35.964Z,2.63
2023-04-26T14:46:04.415Z,2.60
2023-04-26T14:48:34.102Z,2.13
2023-04-26T14:51:02.553Z,2.70
2023-04-26T14:53:30.810Z,2.80
2023-04-26T14:55:59.108Z,2.93
2023-04-26T14:58:27.363Z,2.80
2023-04-26T15:00:56.089Z,2.67
2023-04-26T15:03:24.422Z,3.23
2023-04-26T15:05:54.391Z,3.23
2023-04-26T15:08:22.680Z,2.70
2023-04-26T15:10:51.329Z,2.80
2023-04-26T15:13:19.815Z,2.83
2023-04-26T15:15:48.344Z,2.50
2023-04-26T15:18:16.799Z,2.90
2023-04-26T15:20:45.055Z,2.70
2023-04-26T15:23:14.832Z,2.80
2023-04-26T15:25:43.179Z,2.40
2023-04-26T15:28:11.538Z,3.03
2023-04-26T15:30:39.762Z,2.50
2023-04-26T15:33:08.214Z,3.00
2023-04-26T15:35:36.494Z,2.73
2023-04-26T15:38:04.833Z,3.60
2023-04-26T15:40:35.300Z,3.40
2023-04-26T15:43:05.202Z,3.13
2023-04-26T15:45:33.649Z,3.63
2023-04-26T15:48:01.985Z,2.80
2023-04-26T15:50:30.881Z,2.87
2023-04-26T15:52:59.133Z,3.07
2023-04-26T15:55:27.671Z,2.70
2023-04-26T15:57:57.323Z,2.80
2023-04-26T16:00:26.397Z,3.10
2023-04-26T16:02:54.762Z,2.97
2023-04-26T16:05:23.135Z,2.77
2023-04-26T16:07:51.585Z,3.07
2023-04-26T16:10:19.819Z,2.97
2023-04-26T16:12:48.110Z,3.07
2023-04-26T16:15:17.810Z,2.83
2023-04-26T16:17:46.255Z,2.70
2023-04-26T16:20:15.122Z,2.60
2023-04-26T16:22:45.054Z,2.73
2023-04-26T16:25:13.771Z,2.63
2023-04-26T16:27:42.314Z,2.80
2023-04-26T16:30:11.194Z,2.93
2023-04-26T16:32:48.823Z,2.90
2023-04-26T16:35:17.433Z,3.10
2023-04-26T16:37:47.905Z,2.60
2023-04-26T16:40:16.252Z,2.90
2023-04-26T16:42:44.589Z,2.93
2023-04-26T16:45:16.315Z,3.10
2023-04-26T16:47:46.478Z,2.73
2023-04-26T16:50:14.919Z,3.00
2023-04-26T16:52:43.296Z,2.90
2023-04-26T16:55:11.756Z,2.50
2023-04-26T16:57:40.010Z,3.07
2023-04-26T17:00:11.473Z,2.43
2023-04-26T17:02:40.325Z,2.60
2023-04-26T17:05:11.001Z,2.80
2023-04-26T17:07:39.410Z,2.60
2023-04-26T17:10:09.320Z,2.50
2023-04-26T17:12:38.770Z,3.43
2023-04-26T17:15:08.538Z,2.97
2023-04-26T17:17:36.773Z,3.17
2023-04-26T17:20:06.474Z,3.30
2023-04-26T17:22:36.631Z,2.97
2023-04-26T17:25:05.422Z,2.73
2023-04-26T17:27:33.703Z,3.30
2023-04-26T17:30:02.068Z,2.90
2023-04-26T17:32:30.345Z,3.20
2023-04-26T17:34:58.842Z,3.17
2023-04-26T17:37:28.504Z,3.10
2023-04-26T17:39:58.153Z,3.67
2023-04-26T17:42:26.604Z,3.50
2023-04-26T17:44:54.939Z,3.90
2023-04-26T17:47:23.227Z,3.37
2023-04-26T17:49:51.660Z,3.70
2023-04-26T17:52:20.033Z,3.77
2023-04-26T17:54:48.274Z,3.63
2023-04-26T17:57:20.599Z,3.67
2023-04-26T17:59:48.865Z,3.40
2023-04-26T18:02:17.788Z,3.23
2023-04-26T18:04:46.858Z,3.13
2023-04-26T18:07:15.602Z,3.20
2023-04-26T18:09:44.289Z,3.00
2023-04-26T18:12:12.538Z,3.53
2023-04-26T18:14:44.946Z,3.10
2023-04-26T18:17:13.965Z,3.80
2023-04-26T18:19:44.893Z,3.03
2023-04-26T18:22:13.254Z,2.80
2023-04-26T18:24:41.661Z,3.00
2023-04-26T18:27:11.693Z,3.37
2023-04-26T18:29:40.670Z,3.20
2023-04-26T18:32:10.948Z,3.33
2023-04-26T18:34:39.943Z,2.87
2023-04-26T18:37:09.314Z,3.00
2023-04-26T18:39:37.617Z,3.40
2023-04-26T18:42:06.545Z,3.03
2023-04-26T18:44:35.227Z,3.13
2023-04-26T18:47:03.530Z,2.90
2023-04-26T18:49:33.279Z,2.97
2023-04-26T18:52:01.677Z,2.87
2023-04-26T18:54:31.074Z,3.10
2023-04-26T18:57:01.325Z,3.43
2023-04-26T18:59:31.643Z,3.37
2023-04-26T19:02:00.677Z,3.47
2023-04-26T19:04:33.563Z,3.10
2023-04-26T19:07:03.925Z,3.13
2023-04-26T19:09:52.983Z,3.43
2023-04-26T19:12:23.078Z,3.53
2023-04-26T19:14:51.722Z,3.23
2023-04-26T19:17:20.127Z,2.97
2023-04-26T19:19:51.825Z,3.10
2023-04-26T19:22:21.473Z,3.10
2023-04-26T19:24:50.889Z,3.50
2023-04-26T19:27:19.246Z,3.40
2023-04-26T19:29:47.503Z,3.47
2023-04-26T19:32:15.763Z,3.60
2023-04-26T19:34:45.460Z,3.67
2023-04-26T19:37:13.949Z,21.13
2023-04-26T19:39:43.782Z,3.80
2023-04-26T19:42:12.301Z,3.40
2023-04-26T19:44:40.590Z,3.60
2023-04-26T19:47:09.727Z,2.70
2023-04-26T19:49:38.703Z,2.97
2023-04-26T19:52:07.292Z,3.10
2023-04-26T19:54:35.657Z,3.17
2023-04-26T19:57:05.627Z,3.60
2023-04-26T19:59:33.958Z,3.20
2023-04-26T20:02:03.076Z,3.10
2023-04-26T20:04:31.530Z,3.77
2023-04-26T20:06:59.916Z,2.97
2023-04-26T20:09:28.181Z,3.20
2023-04-26T20:11:56.553Z,3.17
2023-04-26T20:14:27.364Z,3.07
2023-04-26T20:17:04.082Z,3.20
2023-04-26T20:19:32.696Z,3.17
2023-04-26T20:22:01.049Z,3.00
2023-04-26T20:24:29.325Z,3.07
2023-04-26T20:26:58.165Z,2.80
2023-04-26T20:29:27.819Z,2.83
2023-04-26T20:31:56.357Z,3.33
2023-04-26T20:34:24.943Z,3.30
2023-04-26T20:36:53.285Z,3.47
2023-04-26T20:39:21.898Z,3.00
2023-04-26T20:41:50.175Z,3.53
2023-04-26T20:44:18.741Z,2.57
2023-04-26T20:46:48.812Z,3.50
2023-04-26T20:49:17.543Z,3.70
2023-04-26T20:51:45.987Z,3.13
2023-04-26T20:54:14.241Z,2.90
2023-04-26T20:56:42.684Z,3.60
2023-04-26T20:59:11.752Z,3.37
2023-04-26T21:01:40.163Z,3.30
2023-04-26T21:04:09.988Z,3.33
2023-04-26T21:06:38.406Z,3.50
2023-04-26T21:09:07.346Z,3.43
2023-04-26T21:11:36.066Z,3.30
2023-04-26T21:14:05.061Z,3.80
2023-04-26T21:16:33.384Z,3.57
2023-04-26T21:19:01.657Z,3.30
2023-04-26T21:21:32.548Z,3.73
2023-04-26T21:24:01.224Z,3.70
2023-04-26T21:26:29.572Z,5.20
2023-04-26T21:28:58.265Z,4.60
2023-04-26T21:31:26.583Z,4.47
2023-04-26T21:33:54.988Z,4.03
2023-04-26T21:36:23.278Z,3.33
2023-04-26T21:38:53.266Z,3.63
2023-04-26T21:41:21.532Z,4.00
2023-04-26T21:43:50.177Z,4.17
2023-04-26T21:46:19.532Z,4.80
2023-04-26T21:48:47.957Z,7.13
2023-04-26T21:51:16.463Z,5.10
2023-04-26T21:53:45.043Z,4.40
2023-04-26T21:56:15.146Z,4.07
2023-04-26T21:58:44.040Z,3.70
2023-04-26T22:01:13.881Z,3.60
2023-04-26T22:03:42.645Z,3.77
2023-04-26T22:06:12.826Z,4.10
2023-04-26T22:08:41.910Z,3.70
2023-04-26T22:11:10.402Z,3.80
2023-04-26T22:13:41.341Z,4.00
2023-04-26T22:16:09.813Z,4.00
2023-04-26T22:18:38.140Z,4.80
2023-04-26T22:21:07.025Z,4.03
2023-04-26T22:23:35.818Z,3.97
2023-04-26T22:26:04.655Z,4.40
2023-04-26T22:28:33.169Z,4.40
2023-04-26T22:31:07.493Z,4.37
2023-04-26T22:33:39.037Z,4.60
2023-04-26T22:36:09.129Z,4.77
2023-04-26T22:38:37.686Z,4.87
2023-04-26T22:41:11.076Z,4.80
2023-04-26T22:43:41.881Z,4.70
2023-04-26T22:46:17.234Z,4.40
2023-04-26T22:48:45.960Z,4.53
2023-04-26T22:51:18.869Z,4.33
2023-04-26T22:53:49.970Z,4.17
2023-04-26T22:56:18.768Z,4.47
2023-04-26T22:58:47.325Z,4.30
2023-04-26T23:01:17.661Z,4.70
2023-04-26T23:03:46.914Z,4.67
2023-04-26T23:06:15.290Z,4.87
2023-04-26T23:08:43.931Z,4.63
2023-04-26T23:11:12.334Z,4.80
2023-04-26T23:13:41.841Z,4.63
2023-04-26T23:16:10.229Z,5.33
2023-04-26T23:18:44.932Z,4.87
2023-04-26T23:21:13.468Z,4.97
2023-04-26T23:23:43.215Z,4.50
2023-04-26T23:26:11.767Z,4.70
2023-04-26T23:28:40.174Z,4.80
2023-04-26T23:31:08.523Z,4.83
2023-04-26T23:33:36.953Z,4.80
2023-04-26T23:36:08.565Z,4.60
2023-04-26T23:38:39.825Z,4.50
2023-04-26T23:41:09.850Z,5.10
2023-04-26T23:43:38.324Z,4.40
2023-04-26T23:46:08.458Z,4.97
2023-04-26T23:48:36.920Z,4.63
2023-04-26T23:51:06.838Z,5.03
2023-04-26T23:53:35.073Z,5.30
2023-04-26T23:56:03.288Z,5.00
2023-04-26T23:58:31.735Z,4.30
